Apple Springs, Texas
Current Conditions -  °F | °C
As of 12:53 AM on Thursday 23 Oct 2014 (Local Time) from KLFK Reporting Station
Clear Clear  
Wind Chill: 63°   Ceiling: Unl
Heat Index: 63°   Visibility: 10mi
Dew Point: 54°   Wind: 5mph
Humidity: 72%   Direction: 60°ENE
Pressure: 30.11"   Gusts: NA
Location:  31.22°N, 94.97°W
Report Text: KLFK 230553Z AUTO 06004KT 10SM CLR 17/12 A3011 RMK AO2 SLP192 T01720122 10217 20156 402830150 55005
Loading
Personal Weather Stations






























Interactive Weather Map
Tropical Storm Tracking
New forecast layout! Learn more

10-Day Weather Forecast

Advertisements
Track Severe Weather on mobile